sensor_id;sensor_type;location;lat;lon;timestamp;P1;durP1;ratioP1;P2;durP2;ratioP2
22318;SDS011;11327;52.334;9.506;2023-04-03T00:00:52;4.55;;;1.20;;
22318;SDS011;11327;52.334;9.506;2023-04-03T00:04:13;4.17;;;1.37;;
22318;SDS011;11327;52.334;9.506;2023-04-03T00:07:34;5.67;;;1.10;;
22318;SDS011;11327;52.334;9.506;2023-04-03T00:10:54;4.00;;;1.10;;
22318;SDS011;11327;52.334;9.506;2023-04-03T00:14:15;5.92;;;1.27;;
22318;SDS011;11327;52.334;9.506;2023-04-03T00:17:36;5.15;;;1.32;;
22318;SDS011;11327;52.334;9.506;2023-04-03T00:20:57;5.12;;;1.30;;
22318;SDS011;11327;52.334;9.506;2023-04-03T00:24:17;3.90;;;1.17;;
22318;SDS011;11327;52.334;9.506;2023-04-03T00:27:39;3.05;;;0.98;;
22318;SDS011;11327;52.334;9.506;2023-04-03T00:31:00;2.98;;;1.20;;
22318;SDS011;11327;52.334;9.506;2023-04-03T00:34:23;4.15;;;1.12;;
22318;SDS011;11327;52.334;9.506;2023-04-03T00:37:43;5.25;;;1.10;;
22318;SDS011;11327;52.334;9.506;2023-04-03T00:41:05;3.52;;;1.57;;
22318;SDS011;11327;52.334;9.506;2023-04-03T00:47:57;4.75;;;1.15;;
22318;SDS011;11327;52.334;9.506;2023-04-03T00:51:20;6.33;;;1.57;;
22318;SDS011;11327;52.334;9.506;2023-04-03T00:54:47;4.25;;;1.25;;
22318;SDS011;11327;52.334;9.506;2023-04-03T00:58:10;2.45;;;1.20;;
22318;SDS011;11327;52.334;9.506;2023-04-03T01:01:33;4.03;;;0.90;;
22318;SDS011;11327;52.334;9.506;2023-04-03T01:04:55;3.75;;;1.07;;
22318;SDS011;11327;52.334;9.506;2023-04-03T01:08:16;3.83;;;1.30;;
22318;SDS011;11327;52.334;9.506;2023-04-03T01:11:37;5.67;;;1.35;;
22318;SDS011;11327;52.334;9.506;2023-04-03T01:14:59;5.05;;;1.52;;
22318;SDS011;11327;52.334;9.506;2023-04-03T01:18:22;3.92;;;1.22;;
22318;SDS011;11327;52.334;9.506;2023-04-03T01:25:31;2.75;;;1.05;;
22318;SDS011;11327;52.334;9.506;2023-04-03T01:28:53;3.45;;;1.15;;
22318;SDS011;11327;52.334;9.506;2023-04-03T01:32:15;3.67;;;1.17;;
22318;SDS011;11327;52.334;9.506;2023-04-03T01:35:37;4.45;;;1.00;;
22318;SDS011;11327;52.334;9.506;2023-04-03T01:38:59;4.22;;;1.25;;
22318;SDS011;11327;52.334;9.506;2023-04-03T01:42:20;3.58;;;1.45;;
22318;SDS011;11327;52.334;9.506;2023-04-03T01:45:41;3.60;;;1.30;;
22318;SDS011;11327;52.334;9.506;2023-04-03T01:49:02;1.87;;;1.10;;
22318;SDS011;11327;52.334;9.506;2023-04-03T01:52:22;4.12;;;1.05;;
22318;SDS011;11327;52.334;9.506;2023-04-03T01:55:43;2.58;;;1.10;;
22318;SDS011;11327;52.334;9.506;2023-04-03T01:59:04;3.98;;;1.30;;
22318;SDS011;11327;52.334;9.506;2023-04-03T02:02:25;3.22;;;0.90;;
22318;SDS011;11327;52.334;9.506;2023-04-03T02:05:46;3.25;;;1.45;;
22318;SDS011;11327;52.334;9.506;2023-04-03T02:09:06;2.98;;;1.00;;
22318;SDS011;11327;52.334;9.506;2023-04-03T02:12:27;5.83;;;1.22;;
22318;SDS011;11327;52.334;9.506;2023-04-03T02:15:48;4.92;;;1.27;;
22318;SDS011;11327;52.334;9.506;2023-04-03T02:19:08;4.03;;;1.30;;
22318;SDS011;11327;52.334;9.506;2023-04-03T02:22:29;3.80;;;1.30;;
22318;SDS011;11327;52.334;9.506;2023-04-03T02:25:50;2.67;;;1.00;;
22318;SDS011;11327;52.334;9.506;2023-04-03T02:29:11;3.17;;;1.20;;
22318;SDS011;11327;52.334;9.506;2023-04-03T02:32:32;4.30;;;1.30;;
22318;SDS011;11327;52.334;9.506;2023-04-03T02:35:53;2.58;;;0.90;;
22318;SDS011;11327;52.334;9.506;2023-04-03T02:39:15;3.10;;;1.00;;
22318;SDS011;11327;52.334;9.506;2023-04-03T02:42:36;2.90;;;1.07;;
22318;SDS011;11327;52.334;9.506;2023-04-03T02:45:57;3.25;;;0.95;;
22318;SDS011;11327;52.334;9.506;2023-04-03T02:49:18;3.37;;;1.22;;
22318;SDS011;11327;52.334;9.506;2023-04-03T02:52:38;4.05;;;1.02;;
22318;SDS011;11327;52.334;9.506;2023-04-03T02:55:59;4.72;;;1.20;;
22318;SDS011;11327;52.334;9.506;2023-04-03T02:59:20;5.67;;;1.30;;
22318;SDS011;11327;52.334;9.506;2023-04-03T03:02:41;4.22;;;1.00;;
22318;SDS011;11327;52.334;9.506;2023-04-03T03:06:05;4.08;;;1.02;;
22318;SDS011;11327;52.334;9.506;2023-04-03T03:09:28;3.87;;;1.20;;
22318;SDS011;11327;52.334;9.506;2023-04-03T03:12:49;3.33;;;1.25;;
22318;SDS011;11327;52.334;9.506;2023-04-03T03:16:11;5.03;;;1.30;;
22318;SDS011;11327;52.334;9.506;2023-04-03T03:19:31;3.05;;;1.27;;
22318;SDS011;11327;52.334;9.506;2023-04-03T03:22:52;5.17;;;1.17;;
22318;SDS011;11327;52.334;9.506;2023-04-03T03:26:13;4.92;;;1.40;;
22318;SDS011;11327;52.334;9.506;2023-04-03T03:29:33;4.58;;;1.40;;
22318;SDS011;11327;52.334;9.506;2023-04-03T03:32:54;3.70;;;1.30;;
22318;SDS011;11327;52.334;9.506;2023-04-03T03:36:15;2.15;;;1.22;;
22318;SDS011;11327;52.334;9.506;2023-04-03T03:39:36;3.50;;;1.30;;
22318;SDS011;11327;52.334;9.506;2023-04-03T03:42:56;4.55;;;1.45;;
22318;SDS011;11327;52.334;9.506;2023-04-03T03:46:17;6.15;;;1.30;;
22318;SDS011;11327;52.334;9.506;2023-04-03T03:49:38;3.45;;;1.40;;
22318;SDS011;11327;52.334;9.506;2023-04-03T03:52:58;3.75;;;1.70;;
22318;SDS011;11327;52.334;9.506;2023-04-03T03:56:19;4.85;;;1.50;;
22318;SDS011;11327;52.334;9.506;2023-04-03T03:59:40;4.10;;;1.30;;
22318;SDS011;11327;52.334;9.506;2023-04-03T04:03:02;4.45;;;1.50;;
22318;SDS011;11327;52.334;9.506;2023-04-03T04:06:22;4.10;;;1.30;;
22318;SDS011;11327;52.334;9.506;2023-04-03T04:09:43;5.55;;;1.40;;
22318;SDS011;11327;52.334;9.506;2023-04-03T04:13:04;4.53;;;1.37;;
22318;SDS011;11327;52.334;9.506;2023-04-03T04:16:25;5.05;;;1.45;;
22318;SDS011;11327;52.334;9.506;2023-04-03T04:19:46;4.15;;;1.55;;
22318;SDS011;11327;52.334;9.506;2023-04-03T04:23:06;3.98;;;1.17;;
22318;SDS011;11327;52.334;9.506;2023-04-03T04:26:27;3.30;;;1.10;;
22318;SDS011;11327;52.334;9.506;2023-04-03T04:29:48;4.03;;;1.32;;
22318;SDS011;11327;52.334;9.506;2023-04-03T04:33:08;4.47;;;1.17;;
22318;SDS011;11327;52.334;9.506;2023-04-03T04:36:30;2.87;;;1.25;;
22318;SDS011;11327;52.334;9.506;2023-04-03T04:39:50;4.60;;;1.30;;
22318;SDS011;11327;52.334;9.506;2023-04-03T04:43:11;4.20;;;1.20;;
22318;SDS011;11327;52.334;9.506;2023-04-03T04:46:34;4.30;;;1.50;;
22318;SDS011;11327;52.334;9.506;2023-04-03T04:49:54;3.58;;;1.30;;
22318;SDS011;11327;52.334;9.506;2023-04-03T04:53:15;5.37;;;1.60;;
22318;SDS011;11327;52.334;9.506;2023-04-03T04:56:45;5.42;;;1.90;;
22318;SDS011;11327;52.334;9.506;2023-04-03T05:00:06;4.87;;;2.12;;
22318;SDS011;11327;52.334;9.506;2023-04-03T05:03:27;4.30;;;1.75;;
22318;SDS011;11327;52.334;9.506;2023-04-03T05:06:48;5.45;;;2.77;;
22318;SDS011;11327;52.334;9.506;2023-04-03T05:10:09;11.63;;;5.17;;
22318;SDS011;11327;52.334;9.506;2023-04-03T05:13:30;14.58;;;6.67;;
22318;SDS011;11327;52.334;9.506;2023-04-03T05:16:51;12.65;;;4.85;;
22318;SDS011;11327;52.334;9.506;2023-04-03T05:20:15;10.48;;;4.40;;
22318;SDS011;11327;52.334;9.506;2023-04-03T05:23:35;7.40;;;3.70;;
22318;SDS011;11327;52.334;9.506;2023-04-03T05:26:56;8.43;;;3.40;;
22318;SDS011;11327;52.334;9.506;2023-04-03T05:30:17;7.35;;;3.37;;
22318;SDS011;11327;52.334;9.506;2023-04-03T05:33:38;8.98;;;4.33;;
22318;SDS011;11327;52.334;9.506;2023-04-03T05:36:59;11.22;;;3.98;;
22318;SDS011;11327;52.334;9.506;2023-04-03T05:40:20;6.85;;;3.58;;
22318;SDS011;11327;52.334;9.506;2023-04-03T05:43:41;7.12;;;3.20;;
22318;SDS011;11327;52.334;9.506;2023-04-03T05:47:02;6.55;;;2.95;;
22318;SDS011;11327;52.334;9.506;2023-04-03T05:50:22;6.10;;;2.95;;
22318;SDS011;11327;52.334;9.506;2023-04-03T05:53:43;8.35;;;3.25;;
22318;SDS011;11327;52.334;9.506;2023-04-03T05:57:05;5.72;;;2.42;;
22318;SDS011;11327;52.334;9.506;2023-04-03T06:00:26;12.45;;;4.40;;
22318;SDS011;11327;52.334;9.506;2023-04-03T06:03:48;9.28;;;3.85;;
22318;SDS011;11327;52.334;9.506;2023-04-03T06:07:12;8.53;;;3.58;;
22318;SDS011;11327;52.334;9.506;2023-04-03T06:10:35;6.08;;;3.17;;
22318;SDS011;11327;52.334;9.506;2023-04-03T06:13:56;8.43;;;3.25;;
22318;SDS011;11327;52.334;9.506;2023-04-03T06:17:17;6.55;;;2.70;;
22318;SDS011;11327;52.334;9.506;2023-04-03T06:20:38;7.85;;;2.52;;
22318;SDS011;11327;52.334;9.506;2023-04-03T06:24:00;5.72;;;1.87;;
22318;SDS011;11327;52.334;9.506;2023-04-03T06:27:20;5.03;;;2.17;;
22318;SDS011;11327;52.334;9.506;2023-04-03T06:30:41;7.33;;;1.85;;
22318;SDS011;11327;52.334;9.506;2023-04-03T06:34:02;6.03;;;1.60;;
22318;SDS011;11327;52.334;9.506;2023-04-03T06:37:23;7.60;;;1.67;;
22318;SDS011;11327;52.334;9.506;2023-04-03T06:40:49;4.67;;;2.00;;
22318;SDS011;11327;52.334;9.506;2023-04-03T06:44:10;6.90;;;1.57;;
22318;SDS011;11327;52.334;9.506;2023-04-03T06:47:35;5.67;;;1.80;;
22318;SDS011;11327;52.334;9.506;2023-04-03T06:50:56;6.80;;;1.95;;
22318;SDS011;11327;52.334;9.506;2023-04-03T06:54:17;4.97;;;1.57;;
22318;SDS011;11327;52.334;9.506;2023-04-03T06:57:38;6.20;;;1.90;;
22318;SDS011;11327;52.334;9.506;2023-04-03T07:00:59;5.90;;;1.90;;
22318;SDS011;11327;52.334;9.506;2023-04-03T07:04:21;5.10;;;1.92;;
22318;SDS011;11327;52.334;9.506;2023-04-03T07:07:42;6.42;;;2.12;;
22318;SDS011;11327;52.334;9.506;2023-04-03T07:11:03;7.17;;;1.67;;
22318;SDS011;11327;52.334;9.506;2023-04-03T07:14:24;5.12;;;1.52;;
22318;SDS011;11327;52.334;9.506;2023-04-03T07:17:45;8.10;;;2.30;;
22318;SDS011;11327;52.334;9.506;2023-04-03T07:21:06;5.08;;;1.75;;
22318;SDS011;11327;52.334;9.506;2023-04-03T07:24:27;5.67;;;1.90;;
22318;SDS011;11327;52.334;9.506;2023-04-03T07:27:48;7.53;;;2.37;;
22318;SDS011;11327;52.334;9.506;2023-04-03T07:31:11;4.75;;;1.60;;
22318;SDS011;11327;52.334;9.506;2023-04-03T07:34:33;6.33;;;2.08;;
22318;SDS011;11327;52.334;9.506;2023-04-03T07:37:54;5.28;;;2.00;;
22318;SDS011;11327;52.334;9.506;2023-04-03T07:41:16;5.78;;;1.57;;
22318;SDS011;11327;52.334;9.506;2023-04-03T07:44:38;4.17;;;1.70;;
22318;SDS011;11327;52.334;9.506;2023-04-03T07:47:59;6.80;;;2.08;;
22318;SDS011;11327;52.334;9.506;2023-04-03T07:51:20;6.00;;;2.10;;
22318;SDS011;11327;52.334;9.506;2023-04-03T07:54:41;7.78;;;2.00;;
22318;SDS011;11327;52.334;9.506;2023-04-03T07:58:02;4.42;;;1.72;;
22318;SDS011;11327;52.334;9.506;2023-04-03T08:01:23;5.45;;;1.57;;
22318;SDS011;11327;52.334;9.506;2023-04-03T08:04:44;6.83;;;1.90;;
22318;SDS011;11327;52.334;9.506;2023-04-03T08:08:05;5.17;;;1.90;;
22318;SDS011;11327;52.334;9.506;2023-04-03T08:11:27;5.25;;;1.75;;
22318;SDS011;11327;52.334;9.506;2023-04-03T08:14:47;3.50;;;1.25;;
22318;SDS011;11327;52.334;9.506;2023-04-03T08:18:08;5.10;;;1.30;;
22318;SDS011;11327;52.334;9.506;2023-04-03T08:21:29;4.40;;;1.00;;
22318;SDS011;11327;52.334;9.506;2023-04-03T08:24:50;5.90;;;0.90;;
22318;SDS011;11327;52.334;9.506;2023-04-03T08:28:11;2.08;;;0.82;;
22318;SDS011;11327;52.334;9.506;2023-04-03T08:31:32;4.35;;;1.00;;
22318;SDS011;11327;52.334;9.506;2023-04-03T08:34:53;3.65;;;0.90;;
22318;SDS011;11327;52.334;9.506;2023-04-03T08:38:13;3.20;;;0.80;;
22318;SDS011;11327;52.334;9.506;2023-04-03T08:45:06;3.25;;;0.80;;
22318;SDS011;11327;52.334;9.506;2023-04-03T08:48:33;2.50;;;0.88;;
22318;SDS011;11327;52.334;9.506;2023-04-03T08:58:56;2.65;;;1.00;;
22318;SDS011;11327;52.334;9.506;2023-04-03T09:02:33;3.52;;;0.80;;
22318;SDS011;11327;52.334;9.506;2023-04-03T09:05:57;4.12;;;0.98;;
22318;SDS011;11327;52.334;9.506;2023-04-03T09:09:33;4.87;;;0.80;;
22318;SDS011;11327;52.334;9.506;2023-04-03T09:12:57;5.00;;;0.90;;
22318;SDS011;11327;52.334;9.506;2023-04-03T09:19:51;3.85;;;0.80;;
22318;SDS011;11327;52.334;9.506;2023-04-03T09:27:00;3.25;;;1.00;;
22318;SDS011;11327;52.334;9.506;2023-04-03T09:30:26;3.70;;;0.98;;
22318;SDS011;11327;52.334;9.506;2023-04-03T09:33:53;3.45;;;0.80;;
22318;SDS011;11327;52.334;9.506;2023-04-03T09:37:36;3.17;;;0.70;;
22318;SDS011;11327;52.334;9.506;2023-04-03T09:41:07;1.72;;;0.80;;
22318;SDS011;11327;52.334;9.506;2023-04-03T09:44:31;3.33;;;0.70;;
22318;SDS011;11327;52.334;9.506;2023-04-03T09:51:31;2.37;;;0.60;;
22318;SDS011;11327;52.334;9.506;2023-04-03T09:54:52;2.67;;;0.70;;
22318;SDS011;11327;52.334;9.506;2023-04-03T09:58:27;3.40;;;0.85;;
22318;SDS011;11327;52.334;9.506;2023-04-03T10:02:00;2.27;;;0.90;;
22318;SDS011;11327;52.334;9.506;2023-04-03T10:09:00;1.92;;;0.70;;
22318;SDS011;11327;52.334;9.506;2023-04-03T10:12:29;2.50;;;0.70;;
22318;SDS011;11327;52.334;9.506;2023-04-03T10:15:54;2.95;;;0.95;;
22318;SDS011;11327;52.334;9.506;2023-04-03T10:23:02;2.40;;;0.60;;
22318;SDS011;11327;52.334;9.506;2023-04-03T10:29:55;2.45;;;0.70;;
22318;SDS011;11327;52.334;9.506;2023-04-03T10:37:13;2.30;;;0.80;;
22318;SDS011;11327;52.334;9.506;2023-04-03T10:56:10;2.65;;;0.80;;
22318;SDS011;11327;52.334;9.506;2023-04-03T11:03:13;2.00;;;0.70;;
22318;SDS011;11327;52.334;9.506;2023-04-03T11:06:49;2.33;;;0.62;;
22318;SDS011;11327;52.334;9.506;2023-04-03T11:10:21;2.80;;;0.60;;
22318;SDS011;11327;52.334;9.506;2023-04-03T11:13:50;2.62;;;0.60;;
22318;SDS011;11327;52.334;9.506;2023-04-03T11:17:27;2.98;;;0.68;;
22318;SDS011;11327;52.334;9.506;2023-04-03T11:21:00;2.08;;;0.70;;
22318;SDS011;11327;52.334;9.506;2023-04-03T11:24:32;1.60;;;0.70;;
22318;SDS011;11327;52.334;9.506;2023-04-03T11:28:02;2.50;;;0.70;;
22318;SDS011;11327;52.334;9.506;2023-04-03T11:31:40;4.87;;;0.85;;
22318;SDS011;11327;52.334;9.506;2023-04-03T11:35:04;2.25;;;0.62;;
22318;SDS011;11327;52.334;9.506;2023-04-03T11:38:31;4.95;;;0.78;;
22318;SDS011;11327;52.334;9.506;2023-04-03T11:56:40;1.60;;;0.75;;
22318;SDS011;11327;52.334;9.506;2023-04-03T12:00:01;2.62;;;0.90;;
22318;SDS011;11327;52.334;9.506;2023-04-03T12:06:59;3.22;;;0.78;;
22318;SDS011;11327;52.334;9.506;2023-04-03T12:10:33;2.98;;;0.70;;
22318;SDS011;11327;52.334;9.506;2023-04-03T12:17:25;1.98;;;0.75;;
22318;SDS011;11327;52.334;9.506;2023-04-03T12:20:56;2.58;;;0.70;;
22318;SDS011;11327;52.334;9.506;2023-04-03T12:27:45;2.15;;;0.78;;
22318;SDS011;11327;52.334;9.506;2023-04-03T12:31:08;3.92;;;0.80;;
22318;SDS011;11327;52.334;9.506;2023-04-03T12:34:38;2.35;;;0.90;;
22318;SDS011;11327;52.334;9.506;2023-04-03T12:45:20;2.22;;;0.98;;
22318;SDS011;11327;52.334;9.506;2023-04-03T12:48:53;3.83;;;1.10;;
22318;SDS011;11327;52.334;9.506;2023-04-03T12:52:17;2.87;;;0.82;;
22318;SDS011;11327;52.334;9.506;2023-04-03T12:55:43;3.70;;;0.70;;
22318;SDS011;11327;52.334;9.506;2023-04-03T13:02:46;3.00;;;0.88;;
22318;SDS011;11327;52.334;9.506;2023-04-03T13:06:10;2.35;;;0.80;;
22318;SDS011;11327;52.334;9.506;2023-04-03T13:09:44;3.13;;;0.93;;
22318;SDS011;11327;52.334;9.506;2023-04-03T13:13:09;1.50;;;0.70;;
22318;SDS011;11327;52.334;9.506;2023-04-03T13:16:31;2.52;;;1.00;;
22318;SDS011;11327;52.334;9.506;2023-04-03T13:19:53;2.75;;;0.75;;
22318;SDS011;11327;52.334;9.506;2023-04-03T13:23:14;1.98;;;0.70;;
22318;SDS011;11327;52.334;9.506;2023-04-03T13:26:38;1.98;;;0.90;;
22318;SDS011;11327;52.334;9.506;2023-04-03T13:29:59;2.20;;;0.70;;
22318;SDS011;11327;52.334;9.506;2023-04-03T13:33:23;1.25;;;0.70;;
22318;SDS011;11327;52.334;9.506;2023-04-03T13:36:55;1.98;;;0.78;;
22318;SDS011;11327;52.334;9.506;2023-04-03T13:40:13;2.37;;;0.80;;
22318;SDS011;11327;52.334;9.506;2023-04-03T13:43:35;2.15;;;0.72;;
22318;SDS011;11327;52.334;9.506;2023-04-03T13:46:59;2.42;;;0.90;;
22318;SDS011;11327;52.334;9.506;2023-04-03T13:50:41;2.55;;;0.88;;
22318;SDS011;11327;52.334;9.506;2023-04-03T13:54:21;2.55;;;0.80;;
22318;SDS011;11327;52.334;9.506;2023-04-03T13:57:55;4.00;;;0.93;;
22318;SDS011;11327;52.334;9.506;2023-04-03T14:01:19;2.80;;;0.90;;
22318;SDS011;11327;52.334;9.506;2023-04-03T14:04:46;3.15;;;0.70;;
22318;SDS011;11327;52.334;9.506;2023-04-03T14:08:08;3.27;;;0.72;;
22318;SDS011;11327;52.334;9.506;2023-04-03T14:11:30;2.42;;;0.80;;
22318;SDS011;11327;52.334;9.506;2023-04-03T14:14:51;1.52;;;0.62;;
22318;SDS011;11327;52.334;9.506;2023-04-03T14:18:13;2.85;;;0.72;;
22318;SDS011;11327;52.334;9.506;2023-04-03T14:21:35;1.00;;;0.57;;
22318;SDS011;11327;52.334;9.506;2023-04-03T14:24:56;3.05;;;0.90;;
22318;SDS011;11327;52.334;9.506;2023-04-03T14:28:18;2.05;;;0.80;;
22318;SDS011;11327;52.334;9.506;2023-04-03T14:31:43;2.25;;;0.70;;
22318;SDS011;11327;52.334;9.506;2023-04-03T14:35:04;3.47;;;0.78;;
22318;SDS011;11327;52.334;9.506;2023-04-03T14:38:28;1.72;;;0.90;;
22318;SDS011;11327;52.334;9.506;2023-04-03T14:41:50;2.40;;;0.88;;
22318;SDS011;11327;52.334;9.506;2023-04-03T14:45:11;3.25;;;0.90;;
22318;SDS011;11327;52.334;9.506;2023-04-03T14:48:33;2.10;;;0.70;;
22318;SDS011;11327;52.334;9.506;2023-04-03T14:51:54;2.85;;;0.95;;
22318;SDS011;11327;52.334;9.506;2023-04-03T14:55:15;3.05;;;0.90;;
22318;SDS011;11327;52.334;9.506;2023-04-03T14:58:37;2.27;;;0.70;;
22318;SDS011;11327;52.334;9.506;2023-04-03T15:01:58;3.35;;;1.05;;
22318;SDS011;11327;52.334;9.506;2023-04-03T15:05:19;3.90;;;1.00;;
22318;SDS011;11327;52.334;9.506;2023-04-03T15:08:40;1.52;;;0.82;;
22318;SDS011;11327;52.334;9.506;2023-04-03T15:12:02;2.47;;;0.95;;
22318;SDS011;11327;52.334;9.506;2023-04-03T15:15:23;3.02;;;0.75;;
22318;SDS011;11327;52.334;9.506;2023-04-03T15:18:46;2.33;;;0.72;;
22318;SDS011;11327;52.334;9.506;2023-04-03T15:22:15;11.33;;;7.33;;
22318;SDS011;11327;52.334;9.506;2023-04-03T15:25:37;2.12;;;1.00;;
22318;SDS011;11327;52.334;9.506;2023-04-03T15:28:59;2.15;;;1.07;;
22318;SDS011;11327;52.334;9.506;2023-04-03T15:32:20;2.35;;;0.80;;
22318;SDS011;11327;52.334;9.506;2023-04-03T15:35:41;2.05;;;0.80;;
22318;SDS011;11327;52.334;9.506;2023-04-03T15:39:03;2.72;;;1.00;;
22318;SDS011;11327;52.334;9.506;2023-04-03T15:42:24;2.37;;;1.00;;
22318;SDS011;11327;52.334;9.506;2023-04-03T15:45:45;3.92;;;1.00;;
22318;SDS011;11327;52.334;9.506;2023-04-03T15:49:06;2.12;;;0.90;;
22318;SDS011;11327;52.334;9.506;2023-04-03T15:52:27;2.25;;;0.90;;
22318;SDS011;11327;52.334;9.506;2023-04-03T15:55:47;3.08;;;1.00;;
22318;SDS011;11327;52.334;9.506;2023-04-03T15:59:08;4.08;;;0.88;;
22318;SDS011;11327;52.334;9.506;2023-04-03T16:02:29;1.67;;;0.80;;
22318;SDS011;11327;52.334;9.506;2023-04-03T16:05:50;3.08;;;0.93;;
22318;SDS011;11327;52.334;9.506;2023-04-03T16:09:11;2.50;;;0.90;;
22318;SDS011;11327;52.334;9.506;2023-04-03T16:12:32;5.33;;;1.12;;
22318;SDS011;11327;52.334;9.506;2023-04-03T16:15:53;2.75;;;1.00;;
22318;SDS011;11327;52.334;9.506;2023-04-03T16:19:14;3.83;;;1.00;;
22318;SDS011;11327;52.334;9.506;2023-04-03T16:22:35;3.30;;;0.85;;
22318;SDS011;11327;52.334;9.506;2023-04-03T16:25:57;3.27;;;0.98;;
22318;SDS011;11327;52.334;9.506;2023-04-03T16:29:18;2.12;;;0.88;;
22318;SDS011;11327;52.334;9.506;2023-04-03T16:32:38;3.30;;;0.90;;
22318;SDS011;11327;52.334;9.506;2023-04-03T16:36:00;1.95;;;0.90;;
22318;SDS011;11327;52.334;9.506;2023-04-03T16:39:21;2.90;;;1.07;;
22318;SDS011;11327;52.334;9.506;2023-04-03T16:42:42;3.37;;;1.27;;
22318;SDS011;11327;52.334;9.506;2023-04-03T16:46:03;2.50;;;1.07;;
22318;SDS011;11327;52.334;9.506;2023-04-03T16:49:24;2.67;;;1.00;;
22318;SDS011;11327;52.334;9.506;2023-04-03T16:52:45;2.17;;;0.90;;
22318;SDS011;11327;52.334;9.506;2023-04-03T16:56:07;4.28;;;1.50;;
22318;SDS011;11327;52.334;9.506;2023-04-03T16:59:27;4.67;;;1.30;;
22318;SDS011;11327;52.334;9.506;2023-04-03T17:02:48;1.57;;;0.75;;
22318;SDS011;11327;52.334;9.506;2023-04-03T17:06:09;1.90;;;0.82;;
22318;SDS011;11327;52.334;9.506;2023-04-03T17:09:36;2.37;;;0.78;;
22318;SDS011;11327;52.334;9.506;2023-04-03T17:12:57;3.27;;;0.82;;
22318;SDS011;11327;52.334;9.506;2023-04-03T17:16:18;2.80;;;0.98;;
22318;SDS011;11327;52.334;9.506;2023-04-03T17:19:39;3.45;;;0.80;;
22318;SDS011;11327;52.334;9.506;2023-04-03T17:23:01;6.25;;;1.00;;
22318;SDS011;11327;52.334;9.506;2023-04-03T17:26:21;3.98;;;1.20;;
22318;SDS011;11327;52.334;9.506;2023-04-03T17:29:42;2.37;;;1.20;;
22318;SDS011;11327;52.334;9.506;2023-04-03T17:33:03;3.47;;;1.00;;
22318;SDS011;11327;52.334;9.506;2023-04-03T17:36:23;3.45;;;1.00;;
22318;SDS011;11327;52.334;9.506;2023-04-03T17:39:44;2.40;;;1.00;;
22318;SDS011;11327;52.334;9.506;2023-04-03T17:43:06;2.85;;;1.02;;
22318;SDS011;11327;52.334;9.506;2023-04-03T17:46:27;3.58;;;1.10;;
22318;SDS011;11327;52.334;9.506;2023-04-03T17:49:49;1.70;;;0.90;;
22318;SDS011;11327;52.334;9.506;2023-04-03T17:53:10;3.52;;;0.93;;
22318;SDS011;11327;52.334;9.506;2023-04-03T17:56:32;2.80;;;1.00;;
22318;SDS011;11327;52.334;9.506;2023-04-03T17:59:53;3.35;;;1.07;;
22318;SDS011;11327;52.334;9.506;2023-04-03T18:03:14;1.87;;;1.00;;
22318;SDS011;11327;52.334;9.506;2023-04-03T18:06:45;3.12;;;1.02;;
22318;SDS011;11327;52.334;9.506;2023-04-03T18:10:08;3.02;;;1.00;;
22318;SDS011;11327;52.334;9.506;2023-04-03T18:13:29;2.15;;;0.95;;
22318;SDS011;11327;52.334;9.506;2023-04-03T18:16:50;3.08;;;1.40;;
22318;SDS011;11327;52.334;9.506;2023-04-03T18:20:11;3.45;;;1.20;;
22318;SDS011;11327;52.334;9.506;2023-04-03T18:23:34;4.35;;;1.15;;
22318;SDS011;11327;52.334;9.506;2023-04-03T18:27:01;4.08;;;1.22;;
22318;SDS011;11327;52.334;9.506;2023-04-03T18:30:24;2.00;;;0.95;;
22318;SDS011;11327;52.334;9.506;2023-04-03T18:33:45;3.70;;;1.25;;
22318;SDS011;11327;52.334;9.506;2023-04-03T18:37:06;3.50;;;1.17;;
22318;SDS011;11327;52.334;9.506;2023-04-03T18:40:27;4.05;;;1.40;;
22318;SDS011;11327;52.334;9.506;2023-04-03T18:43:47;2.47;;;1.17;;
22318;SDS011;11327;52.334;9.506;2023-04-03T18:47:09;2.83;;;1.10;;
22318;SDS011;11327;52.334;9.506;2023-04-03T18:50:29;3.58;;;1.35;;
22318;SDS011;11327;52.334;9.506;2023-04-03T18:53:50;3.58;;;1.42;;
22318;SDS011;11327;52.334;9.506;2023-04-03T18:57:11;1.50;;;1.00;;
22318;SDS011;11327;52.334;9.506;2023-04-03T19:00:32;2.10;;;1.20;;
22318;SDS011;11327;52.334;9.506;2023-04-03T19:03:53;2.95;;;1.07;;
22318;SDS011;11327;52.334;9.506;2023-04-03T19:07:14;2.92;;;1.37;;
22318;SDS011;11327;52.334;9.506;2023-04-03T19:10:35;2.52;;;1.15;;
22318;SDS011;11327;52.334;9.506;2023-04-03T19:13:56;3.72;;;1.50;;
22318;SDS011;11327;52.334;9.506;2023-04-03T19:17:17;3.17;;;1.37;;
22318;SDS011;11327;52.334;9.506;2023-04-03T19:20:39;5.42;;;1.35;;
22318;SDS011;11327;52.334;9.506;2023-04-03T19:23:59;2.92;;;1.37;;
22318;SDS011;11327;52.334;9.506;2023-04-03T19:27:20;2.92;;;1.12;;
22318;SDS011;11327;52.334;9.506;2023-04-03T19:30:41;3.80;;;1.35;;
22318;SDS011;11327;52.334;9.506;2023-04-03T19:34:02;4.05;;;1.57;;
22318;SDS011;11327;52.334;9.506;2023-04-03T19:37:24;3.65;;;1.42;;
22318;SDS011;11327;52.334;9.506;2023-04-03T19:40:46;2.95;;;1.27;;
22318;SDS011;11327;52.334;9.506;2023-04-03T19:44:06;2.85;;;1.27;;
22318;SDS011;11327;52.334;9.506;2023-04-03T19:47:28;3.12;;;1.40;;
22318;SDS011;11327;52.334;9.506;2023-04-03T19:50:48;3.05;;;1.42;;
22318;SDS011;11327;52.334;9.506;2023-04-03T19:54:09;4.30;;;1.40;;
22318;SDS011;11327;52.334;9.506;2023-04-03T19:57:30;2.87;;;1.60;;
22318;SDS011;11327;52.334;9.506;2023-04-03T20:00:51;2.75;;;1.40;;
22318;SDS011;11327;52.334;9.506;2023-04-03T20:04:11;3.05;;;1.70;;
22318;SDS011;11327;52.334;9.506;2023-04-03T20:07:32;2.85;;;1.50;;
22318;SDS011;11327;52.334;9.506;2023-04-03T20:10:54;2.72;;;1.22;;
22318;SDS011;11327;52.334;9.506;2023-04-03T20:14:15;2.72;;;1.47;;
22318;SDS011;11327;52.334;9.506;2023-04-03T20:17:36;3.95;;;2.00;;
22318;SDS011;11327;52.334;9.506;2023-04-03T20:20:58;4.95;;;2.20;;
22318;SDS011;11327;52.334;9.506;2023-04-03T20:24:21;3.33;;;1.92;;
22318;SDS011;11327;52.334;9.506;2023-04-03T20:27:41;3.95;;;1.90;;
22318;SDS011;11327;52.334;9.506;2023-04-03T20:31:02;4.37;;;1.95;;
22318;SDS011;11327;52.334;9.506;2023-04-03T20:34:24;4.95;;;1.85;;
22318;SDS011;11327;52.334;9.506;2023-04-03T20:37:44;5.58;;;1.90;;
22318;SDS011;11327;52.334;9.506;2023-04-03T20:41:06;3.85;;;1.80;;
22318;SDS011;11327;52.334;9.506;2023-04-03T20:44:27;5.35;;;1.95;;
22318;SDS011;11327;52.334;9.506;2023-04-03T20:47:48;3.62;;;1.32;;
22318;SDS011;11327;52.334;9.506;2023-04-03T20:51:11;1.92;;;1.10;;
22318;SDS011;11327;52.334;9.506;2023-04-03T20:54:34;2.33;;;1.10;;
22318;SDS011;11327;52.334;9.506;2023-04-03T20:57:55;2.55;;;1.00;;
22318;SDS011;11327;52.334;9.506;2023-04-03T21:01:21;4.78;;;1.25;;
22318;SDS011;11327;52.334;9.506;2023-04-03T21:04:45;3.85;;;1.20;;
22318;SDS011;11327;52.334;9.506;2023-04-03T21:19:25;6.28;;;1.42;;
22318;SDS011;11327;52.334;9.506;2023-04-03T21:22:45;3.10;;;1.07;;
22318;SDS011;11327;52.334;9.506;2023-04-03T21:26:06;3.12;;;1.30;;
22318;SDS011;11327;52.334;9.506;2023-04-03T21:29:27;3.25;;;1.10;;
22318;SDS011;11327;52.334;9.506;2023-04-03T21:32:48;2.20;;;1.15;;
22318;SDS011;11327;52.334;9.506;2023-04-03T21:36:08;3.58;;;1.40;;
22318;SDS011;11327;52.334;9.506;2023-04-03T21:39:29;4.50;;;1.30;;
22318;SDS011;11327;52.334;9.506;2023-04-03T21:42:53;3.15;;;1.20;;
22318;SDS011;11327;52.334;9.506;2023-04-03T21:46:15;2.87;;;1.50;;
22318;SDS011;11327;52.334;9.506;2023-04-03T21:49:36;3.77;;;1.40;;
22318;SDS011;11327;52.334;9.506;2023-04-03T21:52:57;3.90;;;1.40;;
22318;SDS011;11327;52.334;9.506;2023-04-03T21:56:19;2.58;;;1.20;;
22318;SDS011;11327;52.334;9.506;2023-04-03T21:59:42;2.22;;;1.10;;
22318;SDS011;11327;52.334;9.506;2023-04-03T22:03:03;3.60;;;1.25;;
22318;SDS011;11327;52.334;9.506;2023-04-03T22:06:24;3.20;;;1.35;;
22318;SDS011;11327;52.334;9.506;2023-04-03T22:09:45;4.40;;;1.20;;